Portada
METAR-TAF:

METAR-TAF

Aeroports :

Bàssora, Iraq

latitud: 30-32-56N, longitud: 47-39-45E, altitud: 1 m

Observació

L'informe es va fer fa 17 minuts, a les 13:00 UTC
Vent 24 kt del Oest
Temperatura 47°C
Humitat 6%
Pressió 1001 hPa
Visibilitat 10 km o més
sense núvols per sota de 1500 mi sense presència de cumulonimbus.

METAR: ORMM 211300Z 28024KT CAVOK 47/M00 Q1001 NOSIG

Hora: 16:17 (13:17 UTC)

Pronòstic

L'informe es va fer fa 3 hores i 17 minuts, a les 10:00 UTC
Pronòstic vàlid del 21 a les 12 UTC al 22 a les 12 UTC
Vent 22 kt del Oest
Visibilitat 10 km o més
sense núvols per sota de 1500 mi sense presència de cumulonimbus.
Temporalment
l' 22 a les 04 UTC al 22 a les 08 UTC
Vent 10 kt del Oest
Visibilitat: 7000 m

TAF: ORMM 211000Z 2112/2212 27022KT CAVOK TEMPO 2204/2208 28010KT 7000 NSC

Observacions i pronòstics meteorològics de més de 4000 aeroports (METAR i TAF).

Les estacions disponibles són els punts grocs i vermells al mapa.

Posi el ratolí al punt desitjat per veure el nom de l'estació.

Feu clic per veure les observacions i els pronòstics meteorològics.

Per canviar el mapa: feu clic els botons verds amb una creu de color negre per apropar; al botó verd amb un guió per allunyar la imatge; o en les fletxes verdes per a mapes adjacents.


METAR-TAF: